NCAR-RAP Real-Time Weather Data

Output produced by METARs form (08 May 2021  00:35 UTC)
found at http://weather.rap.ucar.edu/surface/
 
KSYR 072354Z 34006KT 7SM -RA FEW007 OVC044 07/05 A2990 RMK AO2 SLP126 P0002 60003 T00720050 10133 20072 50004
KSYR 072328Z 33010KT 10SM -RA FEW007 OVC049 08/06 A2991 RMK AO2 P0001 T00780056
KSYR 072254Z 34010KT 10SM -RA FEW015 OVC050 08/04 A2991 RMK AO2 SLP127 P0001 T00830044
KSYR 072154Z 32010KT 10SM -RA OVC055 10/04 A2991 RMK AO2 RAB01 SLP127 P0000 T01000044
KSYR 072054Z 32008KT 10SM OVC055 11/03 A2989 RMK AO2 SLP122 60000 T01110033 55002
KSYR 071954Z 35011KT 10SM FEW050 OVC090 12/03 A2989 RMK AO2 SLP118 T01170028
KSYR 071854Z 33010KT 10SM OVC050 13/03 A2989 RMK AO2 RAB34E53 SLP122 P0000 T01280028
KSYR 071754Z 34010KT 10SM OVC075 12/00 A2990 RMK AO2 SLP123 T01220000 10139 20061 56017
KSYR 071654Z 33011KT 10SM OVC075 12/M01 A2991 RMK AO2 SLP128 T01221006
KSYR 071554Z 36008KT 10SM FEW060 OVC090 13/00 A2993 RMK AO2 SLP134 T01330000
KSYR 071454Z 35006KT 10SM OVC090 12/01 A2995 RMK AO2 SLP140 T01220006 58009
KSYR 071354Z 31006KT 10SM OVC090 11/02 A2996 RMK AO2 SLP144 T01060017
KSYR 071254Z 00000KT 10SM BKN100 OVC220 08/01 A2997 RMK AO2 SLP148 T00830011
KSYR 071154Z 00000KT 10SM BKN100 OVC220 06/01 A2998 RMK AO2 SLP150 T00560006 10056 20011 53003
KSYR 071054Z 15004KT 10SM SCT100 BKN130 BKN200 03/M01 A2997 RMK AO2 SLP147 T00281011
KSYR 070954Z 10005KT 10SM SCT110 SCT130 BKN200 02/M01 A2996 RMK AO2 SLP145 T00221011
KSYR 070854Z COR 10004KT 10SM FEW110 SCT200 02/M02 A2997 RMK AO2 SLP146 T00221017 56007